Time;durP1;ratioP1;P1;durP2;ratioP2;P2;SDS_P1;SDS_P2;PMS_P1;PMS_P2;Temp;Humidity;BMP_temperature;BMP_pressure;BME280_temperature;BME280_humidity;BME280_pressure;Samples;Min_cycle;Max_cycle;Signal;HPM_P1;HPM_P2
2023/01/06 00:01:28;;;;;;;10.27;3.20;;;11.70;99.90;;;;;;5053666;28;20349;-82
2023/01/06 00:03:57;;;;;;;10.00;3.30;;;11.70;99.90;;;;;;5054732;28;20036;-81
2023/01/06 00:06:26;;;;;;;9.80;3.28;;;11.70;99.90;;;;;;5056329;28;20028;-82
2023/01/06 00:08:54;;;;;;;10.02;3.53;;;11.70;99.90;;;;;;5056606;28;20349;-82
2023/01/06 00:11:19;;;;;;;8.32;2.95;;;11.70;99.90;;;;;;5056196;28;20111;-82
2023/01/06 00:13:45;;;;;;;10.90;3.35;;;11.70;99.90;;;;;;5039579;28;20056;-83
2023/01/06 00:16:14;;;;;;;8.77;4.03;;;11.60;99.90;;;;;;5055447;28;20025;-83
2023/01/06 00:18:40;;;;;;;11.95;3.33;;;11.70;99.90;;;;;;5056214;28;20460;-83
2023/01/06 00:21:07;;;;;;;10.90;3.95;;;11.60;99.90;;;;;;5056013;28;20039;-84
2023/01/06 00:23:34;;;;;;;7.53;3.20;;;11.60;99.90;;;;;;5039724;28;20101;-83
2023/01/06 00:26:00;;;;;;;8.45;3.40;;;11.70;99.90;;;;;;5056040;28;20055;-84
2023/01/06 00:28:26;;;;;;;8.43;3.35;;;11.70;99.90;;;;;;5056156;28;20094;-83
2023/01/06 00:30:52;;;;;;;8.30;3.17;;;11.60;99.90;;;;;;5039500;28;20464;-83
2023/01/06 00:33:18;;;;;;;7.72;3.83;;;11.70;99.90;;;;;;5074053;28;20040;-83
2023/01/06 00:35:43;;;;;;;7.65;3.25;;;11.70;99.90;;;;;;5056111;28;20441;-84
2023/01/06 00:38:09;;;;;;;10.68;4.43;;;11.70;99.90;;;;;;5055955;28;20492;-84
2023/01/06 00:40:36;;;;;;;7.78;3.42;;;11.70;99.90;;;;;;5056258;28;20479;-83
2023/01/06 00:43:03;;;;;;;8.50;2.72;;;11.60;99.90;;;;;;5073852;28;20027;-85
2023/01/06 00:45:28;;;;;;;9.35;3.30;;;11.60;99.90;;;;;;5056040;28;20111;-84
2023/01/06 00:47:54;;;;;;;8.38;3.40;;;11.60;99.90;;;;;;5057748;28;20067;-83
2023/01/06 00:50:20;;;;;;;7.95;2.95;;;11.60;99.90;;;;;;5042103;28;20158;-83
2023/01/06 00:52:47;;;;;;;8.07;2.80;;;11.60;99.90;;;;;;5056113;28;20009;-82
2023/01/06 00:55:12;;;;;;;9.52;3.05;;;11.60;99.90;;;;;;5063879;28;20017;-82
2023/01/06 00:57:39;;;;;;;8.50;3.20;;;11.60;99.90;;;;;;5060459;28;20028;-82
2023/01/06 01:00:07;;;;;;;9.52;3.40;;;11.60;99.90;;;;;;5058613;28;20028;-87
2023/01/06 01:02:32;;;;;;;6.35;3.47;;;11.60;99.90;;;;;;5061131;28;20034;-83
2023/01/06 01:04:58;;;;;;;7.53;3.05;;;11.60;99.90;;;;;;5047202;28;20024;-83
2023/01/06 01:07:24;;;;;;;8.27;2.78;;;11.60;99.90;;;;;;5023787;28;20049;-83
2023/01/06 01:09:49;;;;;;;10.00;3.22;;;11.60;99.90;;;;;;5055766;28;20082;-84
2023/01/06 01:12:15;;;;;;;6.88;3.05;;;11.60;99.90;;;;;;5055418;28;20031;-84
2023/01/06 01:14:45;;;;;;;9.80;2.95;;;11.60;99.90;;;;;;5055837;28;20028;-84
2023/01/06 01:17:14;;;;;;;9.03;2.73;;;11.70;99.90;;;;;;5073367;28;20125;-84
2023/01/06 01:19:40;;;;;;;7.72;3.25;;;11.60;99.90;;;;;;5073670;28;20271;-84
2023/01/06 01:22:07;;;;;;;10.77;3.90;;;11.70;99.90;;;;;;5055304;28;20489;-86
2023/01/06 01:24:33;;;;;;;10.93;3.00;;;11.60;99.90;;;;;;5055524;28;20058;-83
2023/01/06 01:26:59;;;;;;;7.22;3.28;;;11.60;99.90;;;;;;5055655;28;20027;-83
2023/01/06 01:29:25;;;;;;;6.15;3.20;;;11.60;99.90;;;;;;5042664;28;20524;-83
2023/01/06 01:31:51;;;;;;;8.63;3.47;;;11.70;99.90;;;;;;5077199;28;20028;-83
2023/01/06 01:34:17;;;;;;;7.18;2.83;;;11.60;99.90;;;;;;5058798;28;20025;-81
2023/01/06 01:36:45;;;;;;;7.40;2.80;;;11.60;99.90;;;;;;5058979;28;20032;-81
2023/01/06 01:39:13;;;;;;;6.35;2.97;;;11.70;99.90;;;;;;5059110;28;20059;-81
2023/01/06 01:41:39;;;;;;;7.68;3.22;;;11.70;99.90;;;;;;5059002;28;20457;-82
2023/01/06 01:44:42;;;;;;;6.85;2.67;;;11.70;99.90;;;;;;5058908;28;20029;-81
2023/01/06 01:47:09;;;;;;;7.63;2.72;;;11.60;99.90;;;;;;5059009;28;20060;-82
2023/01/06 01:49:38;;;;;;;8.18;2.90;;;11.70;99.90;;;;;;5042622;28;20021;-82
2023/01/06 01:52:06;;;;;;;8.57;3.10;;;11.60;99.90;;;;;;5076950;28;20042;-82
2023/01/06 01:54:34;;;;;;;9.13;3.40;;;11.70;99.90;;;;;;5059615;28;20024;-81
2023/01/06 01:57:05;;;;;;;7.18;2.90;;;11.70;99.90;;;;;;5058404;28;20379;-82
2023/01/06 01:59:33;;;;;;;5.10;2.70;;;11.70;99.90;;;;;;5058450;28;20032;-82
2023/01/06 02:01:59;;;;;;;4.60;2.30;;;11.70;99.90;;;;;;5076357;28;20074;-82
2023/01/06 02:04:26;;;;;;;7.72;2.88;;;11.70;99.90;;;;;;5058342;28;20021;-82
2023/01/06 02:06:53;;;;;;;5.18;2.20;;;11.70;99.90;;;;;;5058264;28;20098;-83
2023/01/06 02:09:35;;;;;;;4.88;2.47;;;11.70;99.90;;;;;;5057972;28;20029;-83
2023/01/06 02:12:02;;;;;;;6.60;2.38;;;11.70;99.90;;;;;;5058307;28;20055;-83
2023/01/06 02:14:28;;;;;;;4.75;2.47;;;11.70;99.90;;;;;;5058190;28;20120;-83
2023/01/06 02:16:57;;;;;;;6.65;2.28;;;11.70;99.90;;;;;;5041591;28;20029;-82
2023/01/06 02:19:40;;;;;;;5.55;2.10;;;11.70;99.90;;;;;;5076113;28;20029;-82
2023/01/06 02:22:39;;;;;;;5.32;2.13;;;11.70;99.90;;;;;;5058159;28;20028;-82
2023/01/06 02:25:22;;;;;;;5.88;2.53;;;11.70;99.90;;;;;;5034159;28;20039;-83
2023/01/06 02:28:16;;;;;;;4.85;2.00;;;11.70;99.90;;;;;;5058022;28;20078;-83
2023/01/06 02:30:57;;;;;;;5.18;2.20;;;11.70;99.90;;;;;;5058242;28;20021;-83
2023/01/06 02:33:32;;;;;;;5.25;2.00;;;11.70;99.90;;;;;;5057767;28;20107;-82
2023/01/06 02:36:13;;;;;;;6.15;1.98;;;11.60;99.90;;;;;;5057688;28;20031;-82
2023/01/06 02:39:00;;;;;;;6.55;1.92;;;11.60;99.90;;;;;;5074936;28;20555;-83
2023/01/06 02:42:09;;;;;;;5.85;1.98;;;11.70;99.90;;;;;;5057542;28;20040;-83
2023/01/06 02:44:58;;;;;;;4.93;1.90;;;11.60;99.90;;;;;;5026904;28;20028;-83
2023/01/06 02:47:43;;;;;;;7.55;2.60;;;11.60;99.90;;;;;;5044154;28;20037;-84
2023/01/06 02:50:39;;;;;;;8.15;2.70;;;11.60;99.90;;;;;;5057816;28;20123;-82
2023/01/06 02:53:40;;;;;;;5.40;2.20;;;11.60;99.90;;;;;;5075839;28;20112;-82
2023/01/06 02:56:06;;;;;;;9.18;2.72;;;11.60;99.90;;;;;;5043613;28;20125;-82
2023/01/06 02:58:32;;;;;;;5.57;2.20;;;11.60;99.90;;;;;;5075340;28;20025;-82
2023/01/06 03:01:10;;;;;;;9.30;2.95;;;11.60;99.90;;;;;;5057404;28;20560;-81
2023/01/06 03:03:40;;;;;;;7.40;2.28;;;11.60;99.90;;;;;;5057412;28;20029;-82
2023/01/06 03:06:10;;;;;;;7.13;2.72;;;11.60;99.90;;;;;;5057680;28;20025;-81
2023/01/06 03:08:37;;;;;;;6.03;2.53;;;11.60;99.90;;;;;;5074741;28;20044;-82
2023/01/06 03:11:03;;;;;;;7.78;2.55;;;11.60;99.90;;;;;;5040941;28;20035;-83
2023/01/06 03:13:51;;;;;;;10.65;2.63;;;11.60;99.90;;;;;;5057217;28;20023;-83
2023/01/06 03:16:18;;;;;;;7.20;2.33;;;11.60;99.90;;;;;;5075211;28;20131;-84
2023/01/06 03:18:48;;;;;;;5.38;2.10;;;11.60;99.90;;;;;;5075014;28;20464;-83
2023/01/06 03:21:18;;;;;;;7.70;2.15;;;11.60;99.90;;;;;;5057009;28;20025;-81
2023/01/06 03:23:44;;;;;;;7.07;2.42;;;11.50;99.90;;;;;;5075055;28;20028;-81
2023/01/06 03:26:10;;;;;;;5.72;1.90;;;11.50;99.90;;;;;;5043261;28;20141;-81
2023/01/06 03:28:36;;;;;;;7.07;2.00;;;11.50;99.90;;;;;;5074245;28;20032;-82
2023/01/06 03:31:17;;;;;;;5.88;1.83;;;11.60;99.90;;;;;;5058715;28;20031;-83
2023/01/06 03:34:10;;;;;;;3.92;1.70;;;11.60;99.90;;;;;;5074944;28;20381;-82
2023/01/06 03:37:04;;;;;;;5.93;2.00;;;11.60;99.90;;;;;;5074438;28;20028;-82
2023/01/06 03:39:44;;;;;;;4.70;1.85;;;11.60;99.90;;;;;;5056484;28;20024;-82
2023/01/06 03:45:34;;;;;;;4.30;1.45;;;11.60;99.90;;;;;;5074409;28;20077;-81
2023/01/06 03:48:26;;;;;;;5.20;1.30;;;11.50;99.90;;;;;;5056928;28;20024;-82
2023/01/06 03:51:13;;;;;;;7.75;1.88;;;11.50;99.90;;;;;;5055970;28;20468;-82
2023/01/06 03:53:52;;;;;;;5.82;1.45;;;11.50;99.90;;;;;;5074565;28;20025;-82
2023/01/06 03:56:33;;;;;;;9.27;2.60;;;11.50;99.90;;;;;;5056634;28;20024;-82
2023/01/06 03:59:04;;;;;;;4.68;1.42;;;11.50;99.90;;;;;;5056854;28;20044;-82
2023/01/06 04:01:30;;;;;;;5.17;1.33;;;11.50;99.90;;;;;;5056878;28;20023;-82
2023/01/06 04:03:56;;;;;;;5.43;1.48;;;11.50;99.90;;;;;;5056747;28;20036;-82
2023/01/06 04:06:22;;;;;;;5.60;1.48;;;11.50;99.90;;;;;;5056273;28;20111;-83
2023/01/06 04:08:48;;;;;;;5.20;1.38;;;11.50;99.90;;;;;;5056160;28;20029;-81
2023/01/06 04:13:58;;;;;;;2.90;1.00;;;11.60;99.90;;;;;;5059021;28;20039;-82
2023/01/06 04:16:24;;;;;;;4.05;1.30;;;11.50;99.90;;;;;;5056488;28;20123;-82
2023/01/06 04:18:50;;;;;;;5.53;1.52;;;11.50;99.90;;;;;;5074036;28;20112;-82
2023/01/06 04:21:16;;;;;;;5.55;1.50;;;11.50;99.90;;;;;;5056411;28;20029;-82
2023/01/06 04:23:41;;;;;;;6.40;1.30;;;11.50;99.90;;;;;;5039796;28;20431;-82
2023/01/06 04:26:07;;;;;;;4.55;1.25;;;11.60;99.90;;;;;;5056865;28;20029;-82
2023/01/06 04:28:33;;;;;;;4.75;1.30;;;11.50;99.90;;;;;;5040516;28;20048;-82
2023/01/06 04:31:00;;;;;;;6.38;1.30;;;11.50;99.90;;;;;;5025559;28;20074;-82
2023/01/06 04:33:26;;;;;;;3.45;1.13;;;11.50;99.90;;;;;;5069409;28;20013;-81
2023/01/06 04:35:52;;;;;;;3.65;1.10;;;11.50;99.90;;;;;;5063936;28;20056;-80
2023/01/06 04:38:17;;;;;;;3.30;1.40;;;11.50;99.90;;;;;;5037152;28;20033;-82
2023/01/06 04:40:43;;;;;;;5.63;1.33;;;11.50;99.90;;;;;;5059901;28;20021;-82
2023/01/06 04:43:14;;;;;;;3.67;0.98;;;11.50;99.90;;;;;;5076567;28;20013;-81
2023/01/06 04:45:42;;;;;;;6.13;1.52;;;11.50;99.90;;;;;;5062484;28;20013;-82
2023/01/06 04:48:08;;;;;;;5.55;1.77;;;11.50;99.90;;;;;;5039986;28;20024;-81
2023/01/06 04:50:34;;;;;;;2.17;1.08;;;11.50;99.90;;;;;;5039130;28;20515;-81
2023/01/06 04:53:00;;;;;;;2.80;1.10;;;11.50;99.90;;;;;;5055918;28;20029;-81
2023/01/06 04:55:26;;;;;;;5.18;1.00;;;11.50;99.90;;;;;;5055725;28;20456;-81
2023/01/06 04:57:51;;;;;;;3.35;0.90;;;11.50;99.90;;;;;;5039063;28;20033;-82
2023/01/06 05:00:18;;;;;;;3.47;1.35;;;11.60;99.90;;;;;;5073380;28;20376;-81
2023/01/06 05:02:44;;;;;;;5.72;1.50;;;11.50;99.90;;;;;;5075503;28;20060;-81
2023/01/06 05:05:10;;;;;;;4.43;1.27;;;11.50;99.90;;;;;;5038522;28;20461;-82
2023/01/06 05:07:35;;;;;;;6.05;1.40;;;11.60;99.90;;;;;;5054696;28;20349;-82
2023/01/06 05:10:01;;;;;;;4.70;1.30;;;11.60;99.90;;;;;;5055292;28;20035;-81
2023/01/06 05:12:27;;;;;;;4.13;1.33;;;11.60;99.90;;;;;;5055313;28;20020;-82
2023/01/06 05:14:52;;;;;;;3.72;1.00;;;11.60;99.90;;;;;;5054935;28;20035;-82
2023/01/06 05:17:18;;;;;;;2.65;1.20;;;11.60;99.90;;;;;;5038958;28;20033;-82
2023/01/06 05:19:44;;;;;;;4.72;1.20;;;11.60;99.90;;;;;;5038659;28;20029;-82
2023/01/06 05:22:10;;;;;;;4.75;1.20;;;11.60;99.90;;;;;;5073559;28;20031;-81
2023/01/06 05:24:36;;;;;;;3.78;1.20;;;11.60;99.90;;;;;;5055547;28;20125;-82
2023/01/06 05:27:03;;;;;;;2.50;1.00;;;11.60;99.90;;;;;;5073041;28;20488;-82
2023/01/06 05:29:29;;;;;;;10.45;1.20;;;11.60;99.90;;;;;;5055458;28;20056;-81
2023/01/06 05:31:54;;;;;;;5.18;1.20;;;11.60;99.90;;;;;;5055336;28;20098;-82
2023/01/06 05:34:20;;;;;;;4.57;1.40;;;11.60;99.90;;;;;;5022484;28;20028;-82
2023/01/06 05:36:46;;;;;;;4.63;1.50;;;11.60;99.90;;;;;;5038591;28;20504;-82
2023/01/06 05:39:11;;;;;;;6.78;1.20;;;11.60;99.90;;;;;;5038594;28;20464;-82
2023/01/06 05:41:37;;;;;;;4.25;1.67;;;11.60;99.90;;;;;;5022338;28;20028;-83
2023/01/06 05:44:03;;;;;;;4.75;1.38;;;11.60;99.90;;;;;;5055888;28;20465;-81
2023/01/06 05:46:28;;;;;;;3.67;1.00;;;11.60;99.90;;;;;;5055454;28;20429;-81
2023/01/06 05:48:54;;;;;;;3.92;1.13;;;11.60;99.90;;;;;;5024263;28;20021;-82
2023/01/06 05:51:20;;;;;;;2.50;1.10;;;11.60;99.90;;;;;;5058097;28;20492;-82
2023/01/06 05:53:47;;;;;;;3.80;1.20;;;11.70;99.90;;;;;;5028237;28;20038;-81
2023/01/06 05:56:16;;;;;;;4.28;1.15;;;11.60;99.90;;;;;;5045292;28;20190;-81
2023/01/06 05:58:44;;;;;;;2.92;1.20;;;11.60;99.90;;;;;;5082769;28;20025;-82
2023/01/06 06:01:19;;;;;;;2.53;0.93;;;11.70;99.90;;;;;;5057453;28;20059;-82
2023/01/06 06:03:45;;;;;;;3.22;1.05;;;11.70;99.90;;;;;;5055609;28;20109;-81
2023/01/06 06:06:10;;;;;;;3.63;1.30;;;11.70;99.90;;;;;;5055478;28;20024;-81
2023/01/06 06:08:36;;;;;;;4.60;1.35;;;11.70;99.90;;;;;;5021616;28;20442;-81
2023/01/06 06:11:07;;;;;;;1.92;1.00;;;11.70;99.90;;;;;;5038269;28;20112;-82
2023/01/06 06:13:33;;;;;;;;;;;11.70;99.90;;;;;;5056322;28;20039;-81
2023/01/06 06:16:09;;;;;;;3.10;1.00;;;11.70;99.90;;;;;;5076086;28;20007;-81
2023/01/06 06:18:41;;;;;;;4.57;1.38;;;11.70;99.90;;;;;;5058193;28;20028;-81
2023/01/06 06:21:08;;;;;;;1.65;1.05;;;11.70;99.90;;;;;;5076532;28;20059;-82
2023/01/06 06:23:34;;;;;;;2.13;1.30;;;11.70;99.90;;;;;;5058268;28;20024;-82
2023/01/06 06:26:00;;;;;;;1.90;1.17;;;11.70;99.90;;;;;;5057889;28;20082;-81
2023/01/06 06:28:26;;;;;;;2.63;1.10;;;11.70;99.90;;;;;;5058006;28;20020;-82
2023/01/06 06:30:51;;;;;;;2.80;1.10;;;11.70;99.90;;;;;;5058573;28;20119;-82
2023/01/06 06:33:17;;;;;;;3.45;1.20;;;11.70;99.90;;;;;;5075930;28;20074;-81
2023/01/06 06:35:43;;;;;;;5.88;1.25;;;11.70;99.90;;;;;;5041531;28;20028;-83
2023/01/06 06:38:09;;;;;;;3.75;1.30;;;11.70;99.90;;;;;;5058324;28;20115;-81
2023/01/06 06:40:34;;;;;;;3.60;1.00;;;11.60;99.90;;;;;;5057911;28;20480;-82
2023/01/06 06:43:00;;;;;;;1.63;1.02;;;11.60;99.90;;;;;;5058023;28;20060;-82
2023/01/06 06:45:26;;;;;;;1.77;1.05;;;11.60;99.90;;;;;;5057954;28;20040;-82
2023/01/06 06:47:54;;;;;;;2.33;1.10;;;11.60;99.90;;;;;;5041219;28;20025;-83
2023/01/06 06:50:20;;;;;;;2.30;1.25;;;11.60;99.90;;;;;;5041365;28;20529;-82
2023/01/06 06:52:45;;;;;;;2.22;1.00;;;11.70;99.90;;;;;;5024469;28;20123;-83
2023/01/06 06:55:11;;;;;;;2.70;1.48;;;11.70;99.90;;;;;;5041303;28;20358;-82
2023/01/06 06:57:37;;;;;;;4.93;1.52;;;11.60;99.90;;;;;;5058063;28;20496;-82
2023/01/06 07:00:06;;;;;;;3.10;1.20;;;11.70;99.90;;;;;;5075467;28;20035;-83
2023/01/06 07:02:32;;;;;;;3.33;1.52;;;11.70;99.90;;;;;;5057835;28;20111;-83
2023/01/06 07:04:58;;;;;;;2.40;1.40;;;11.70;99.90;;;;;;5057568;28;20532;-83
2023/01/06 07:07:23;;;;;;;2.08;1.30;;;11.70;99.90;;;;;;5040415;28;20048;-85
2023/01/06 07:09:49;;;;;;;3.55;1.58;;;11.70;99.90;;;;;;5040827;28;20123;-83
2023/01/06 07:12:14;;;;;;;2.55;1.33;;;11.70;99.90;;;;;;5041079;28;20484;-83
2023/01/06 07:14:40;;;;;;;4.38;1.40;;;11.70;99.90;;;;;;5041278;28;20050;-83
2023/01/06 07:17:06;;;;;;;3.22;1.40;;;11.70;99.90;;;;;;5024154;28;20056;-83
2023/01/06 07:19:31;;;;;;;2.15;1.10;;;11.70;99.90;;;;;;5040904;28;20439;-83
2023/01/06 07:21:57;;;;;;;1.73;1.00;;;11.60;99.90;;;;;;5041187;28;20024;-84
2023/01/06 07:24:23;;;;;;;2.47;1.35;;;11.70;99.90;;;;;;5057347;28;20454;-83
2023/01/06 07:26:48;;;;;;;2.17;1.30;;;11.60;99.90;;;;;;5057033;28;20028;-84
2023/01/06 07:29:14;;;;;;;2.63;1.35;;;11.60;99.90;;;;;;5024162;28;20029;-83
2023/01/06 07:31:40;;;;;;;2.55;1.42;;;11.60;99.90;;;;;;5040730;28;20021;-83
2023/01/06 07:34:05;;;;;;;6.70;2.10;;;11.60;99.90;;;;;;5040734;28;20081;-82
2023/01/06 07:36:31;;;;;;;3.15;1.85;;;11.60;99.90;;;;;;5040455;28;20472;-82
2023/01/06 07:38:57;;;;;;;3.88;1.80;;;11.60;99.90;;;;;;5040607;28;20449;-81
2023/01/06 07:41:22;;;;;;;5.55;2.05;;;11.50;99.90;;;;;;5042029;28;20405;-82
2023/01/06 07:43:48;;;;;;;4.85;2.13;;;11.50;99.90;;;;;;5041580;28;20032;-82
2023/01/06 07:46:13;;;;;;;3.53;1.80;;;11.50;99.90;;;;;;5041557;28;20476;-83
2023/01/06 07:48:39;;;;;;;4.47;1.95;;;11.50;99.90;;;;;;5024910;28;20353;-83
2023/01/06 07:51:05;;;;;;;2.97;2.15;;;11.50;99.90;;;;;;5040811;28;20530;-83
2023/01/06 07:53:31;;;;;;;5.80;2.30;;;11.50;99.90;;;;;;5041919;28;20029;-82
2023/01/06 07:55:57;;;;;;;5.50;2.40;;;11.50;99.90;;;;;;5043585;28;20040;-82
2023/01/06 07:58:23;;;;;;;5.72;2.97;;;11.50;99.90;;;;;;5082085;28;20035;-83
2023/01/06 08:00:51;;;;;;;4.60;2.45;;;11.50;99.90;;;;;;5030026;28;20025;-83
2023/01/06 08:03:16;;;;;;;4.93;3.10;;;11.50;99.90;;;;;;5045160;28;20403;-83
2023/01/06 08:05:42;;;;;;;6.40;3.40;;;11.50;99.90;;;;;;5031216;28;20048;-83
2023/01/06 08:08:09;;;;;;;4.55;3.05;;;11.50;99.90;;;;;;5062023;28;20056;-83
2023/01/06 08:10:41;;;;;;;4.68;3.05;;;11.40;99.90;;;;;;5066559;28;20032;-83
2023/01/06 08:13:07;;;;;;;4.95;3.55;;;11.40;99.90;;;;;;5067809;28;20040;-83
2023/01/06 08:15:35;;;;;;;5.18;3.72;;;11.50;99.90;;;;;;5051575;28;20057;-81
2023/01/06 08:18:01;;;;;;;5.35;4.05;;;11.50;99.90;;;;;;5060901;28;20047;-82
2023/01/06 08:20:26;;;;;;;6.50;4.03;;;11.40;99.90;;;;;;5053224;28;20048;-83
2023/01/06 08:22:52;;;;;;;4.63;3.85;;;11.50;99.90;;;;;;5068362;28;20021;-82
2023/01/06 08:25:18;;;;;;;6.38;3.67;;;11.40;99.90;;;;;;5053985;28;20161;-82
2023/01/06 08:27:43;;;;;;;5.35;3.92;;;11.40;99.90;;;;;;5034917;28;20040;-83
2023/01/06 08:30:09;;;;;;;5.72;4.10;;;11.40;99.90;;;;;;5060643;28;20056;-81
2023/01/06 08:32:35;;;;;;;4.25;3.55;;;11.50;99.90;;;;;;5057618;28;20032;-82
2023/01/06 08:35:01;;;;;;;4.28;3.35;;;11.40;99.90;;;;;;5049495;28;20017;-82
2023/01/06 08:37:26;;;;;;;5.00;3.42;;;11.40;99.90;;;;;;5017285;28;20493;-82
2023/01/06 08:39:52;;;;;;;5.70;3.90;;;11.50;99.90;;;;;;5034975;28;20381;-83
2023/01/06 08:42:18;;;;;;;6.28;4.20;;;11.50;99.90;;;;;;5018947;28;20025;-83
2023/01/06 08:44:44;;;;;;;5.57;4.35;;;11.50;99.90;;;;;;5033967;28;20111;-83
2023/01/06 08:47:10;;;;;;;5.72;4.60;;;11.40;99.90;;;;;;5051888;28;20029;-82
2023/01/06 08:49:36;;;;;;;6.43;5.07;;;11.50;99.90;;;;;;5052437;28;20037;-83
2023/01/06 08:52:02;;;;;;;5.40;4.85;;;11.40;99.90;;;;;;5032585;28;20068;-81
2023/01/06 08:54:28;;;;;;;5.50;4.72;;;11.40;99.90;;;;;;5032301;28;20025;-82
2023/01/06 08:56:55;;;;;;;7.93;4.55;;;11.50;99.90;;;;;;5032135;28;20036;-82
2023/01/06 08:59:20;;;;;;;5.72;4.68;;;11.40;99.90;;;;;;5015628;28;20381;-81
2023/01/06 09:01:46;;;;;;;7.70;4.97;;;11.40;99.90;;;;;;4999496;28;20514;-82
2023/01/06 09:04:12;;;;;;;6.90;4.43;;;11.40;99.90;;;;;;5031833;28;20063;-81
2023/01/06 09:06:40;;;;;;;8.57;4.75;;;11.40;99.90;;;;;;5015913;28;20037;-81
2023/01/06 09:09:07;;;;;;;7.68;4.10;;;11.40;99.90;;;;;;5031871;28;20052;-82
2023/01/06 09:11:33;;;;;;;5.32;3.30;;;11.50;99.90;;;;;;5015965;28;20025;-82
2023/01/06 09:13:59;;;;;;;5.65;3.17;;;11.40;99.90;;;;;;5031805;28;20030;-82
2023/01/06 09:16:24;;;;;;;8.07;2.83;;;11.40;99.90;;;;;;5032060;28;20029;-81
2023/01/06 09:18:50;;;;;;;6.18;2.50;;;11.40;99.90;;;;;;5032030;28;20034;-82
2023/01/06 09:21:21;;;;;;;8.23;2.92;;;11.50;99.90;;;;;;5015592;28;20026;-81
2023/01/06 09:23:47;;;;;;;5.80;1.88;;;11.50;99.90;;;;;;5032208;28;20040;-81
2023/01/06 09:26:14;;;;;;;7.75;2.30;;;11.50;99.90;;;;;;5031887;28;20037;-82
2023/01/06 09:28:40;;;;;;;5.85;2.30;;;11.50;99.90;;;;;;5032155;28;20112;-83
2023/01/06 09:31:07;;;;;;;7.90;2.33;;;11.50;99.90;;;;;;5015462;28;20049;-82
2023/01/06 09:33:33;;;;;;;5.60;2.08;;;11.50;99.90;;;;;;5016031;28;20030;-82
2023/01/06 09:35:58;;;;;;;6.45;2.47;;;11.50;99.90;;;;;;5015669;28;20030;-81
2023/01/06 09:38:25;;;;;;;5.95;2.42;;;11.60;99.90;;;;;;5032131;28;20129;-82
2023/01/06 09:41:22;;;;;;;5.47;2.92;;;11.60;99.90;;;;;;5032414;28;20025;-81
2023/01/06 09:44:07;;;;;;;8.10;3.20;;;11.70;99.90;;;;;;5032373;28;20077;-82
2023/01/06 09:46:37;;;;;;;8.38;2.90;;;11.70;99.90;;;;;;5032612;28;20128;-82
2023/01/06 09:49:02;;;;;;;7.78;3.05;;;11.80;99.90;;;;;;5034981;28;20044;-85
2023/01/06 09:51:30;;;;;;;9.70;3.10;;;11.80;99.90;;;;;;5036760;28;20470;-82
2023/01/06 09:54:03;;;;;;;9.65;2.83;;;11.80;99.90;;;;;;5036075;28;20030;-82
2023/01/06 09:56:29;;;;;;;7.13;2.45;;;11.90;99.90;;;;;;5035928;28;20060;-83
2023/01/06 09:58:58;;;;;;;10.50;2.33;;;11.90;99.90;;;;;;5019553;28;20038;-82
2023/01/06 10:01:32;;;;;;;6.90;2.58;;;11.90;99.90;;;;;;5036372;28;20018;-82
2023/01/06 10:03:59;;;;;;;5.53;2.30;;;11.90;99.90;;;;;;5036588;28;20022;-82
2023/01/06 10:06:37;;;;;;;9.02;2.10;;;11.90;99.90;;;;;;5036990;28;20183;-82
2023/01/06 10:09:16;;;;;;;6.20;2.28;;;12.00;99.90;;;;;;5073405;28;20055;-82
2023/01/06 10:11:50;;;;;;;10.10;2.10;;;12.00;99.90;;;;;;5068584;28;20051;-82
2023/01/06 10:14:54;;;;;;;7.35;2.10;;;12.00;99.90;;;;;;5074651;28;20111;-82
2023/01/06 10:17:36;;;;;;;4.70;1.42;;;12.00;99.90;;;;;;4958312;28;20080;-83
2023/01/06 10:20:01;;;;;;;10.32;2.13;;;12.10;99.90;;;;;;4958764;28;20031;-82
2023/01/06 10:22:42;;;;;;;9.50;2.53;;;12.10;99.90;;;;;;5017930;28;20051;-81
2023/01/06 10:25:17;;;;;;;8.80;1.92;;;12.10;99.90;;;;;;5047719;28;20070;-83
2023/01/06 10:28:10;;;;;;;9.05;2.10;;;12.10;99.90;;;;;;5050273;28;20025;-84
2023/01/06 10:30:44;;;;;;;7.70;1.50;;;12.10;99.90;;;;;;5054892;28;20055;-83
2023/01/06 10:33:29;;;;;;;6.03;1.60;;;12.20;99.90;;;;;;5056114;28;20028;-85
2023/01/06 10:35:56;;;;;;;7.88;1.70;;;12.20;99.90;;;;;;5054821;28;20060;-83
2023/01/06 10:38:44;;;;;;;7.95;1.70;;;12.20;99.90;;;;;;5053831;28;20079;-84
2023/01/06 10:41:14;;;;;;;7.03;1.85;;;12.20;99.90;;;;;;5055020;28;20079;-84
2023/01/06 10:43:40;;;;;;;9.25;1.70;;;12.20;99.90;;;;;;5055896;28;20027;-84
2023/01/06 10:46:06;;;;;;;6.75;1.30;;;12.20;99.90;;;;;;5056852;28;20397;-85
2023/01/06 10:48:37;;;;;;;9.10;1.50;;;12.20;99.90;;;;;;5022518;28;20040;-84
2023/01/06 10:51:28;;;;;;;;;;;12.20;99.90;;;;;;5057931;28;20028;-84
2023/01/06 10:53:56;;;;;;;7.80;1.38;;;12.30;99.90;;;;;;5054050;28;19911;-84
2023/01/06 10:56:23;;;;;;;8.60;1.48;;;12.30;99.90;;;;;;5040583;28;20030;-84
2023/01/06 10:58:56;;;;;;;9.20;1.23;;;12.30;99.90;;;;;;5026812;28;20036;-84
2023/01/06 11:01:24;;;;;;;7.07;1.40;;;12.30;99.90;;;;;;5045753;28;20030;-85
2023/01/06 11:04:11;;;;;;;8.52;2.17;;;12.30;99.90;;;;;;5045958;28;20033;-84
2023/01/06 11:06:42;;;;;;;7.07;1.35;;;12.40;99.90;;;;;;5051900;28;20033;-84
2023/01/06 11:09:41;;;;;;;6.80;1.20;;;12.50;99.90;;;;;;5052244;28;20128;-86
2023/01/06 11:12:25;;;;;;;6.50;1.50;;;12.50;99.90;;;;;;5053295;28;20083;-82
2023/01/06 11:15:07;;;;;;;8.70;1.67;;;12.50;99.90;;;;;;5038776;28;20033;-84
2023/01/06 11:17:33;;;;;;;6.38;1.55;;;12.50;99.90;;;;;;5035416;28;20079;-83
2023/01/06 11:20:08;;;;;;;6.13;1.63;;;12.60;99.90;;;;;;5017865;28;20033;-83
2023/01/06 11:22:37;;;;;;;6.35;1.40;;;12.60;99.90;;;;;;5034010;28;20029;-85
2023/01/06 11:25:19;;;;;;;8.52;1.20;;;12.60;99.90;;;;;;5039823;28;20024;-81
2023/01/06 11:27:46;;;;;;;4.95;1.17;;;12.70;99.90;;;;;;5054499;28;20029;-83
2023/01/06 11:30:26;;;;;;;7.70;1.10;;;12.70;99.90;;;;;;5028611;28;20086;-84
2023/01/06 11:32:53;;;;;;;4.05;1.00;;;12.80;99.90;;;;;;5060569;28;20029;-81
2023/01/06 11:35:21;;;;;;;6.68;1.23;;;12.80;99.90;;;;;;5067837;28;20016;-84
2023/01/06 11:37:47;;;;;;;6.45;1.30;;;12.90;99.90;;;;;;5075838;28;20028;-82
2023/01/06 11:40:33;;;;;;;5.50;1.20;;;12.90;99.90;;;;;;5061700;28;20029;-82
2023/01/06 11:43:12;;;;;;;6.18;1.75;;;12.90;99.90;;;;;;5065254;28;20100;-83
2023/01/06 11:45:42;;;;;;;7.43;1.15;;;13.00;99.90;;;;;;5074642;28;20029;-83
2023/01/06 11:48:13;;;;;;;6.20;1.40;;;13.00;99.90;;;;;;5067957;28;20013;-83
2023/01/06 11:50:39;;;;;;;5.43;1.10;;;13.00;99.90;;;;;;5069435;28;20025;-84
2023/01/06 11:53:16;;;;;;;6.00;1.25;;;13.00;99.90;;;;;;5054092;28;20039;-82
2023/01/06 11:55:53;;;;;;;3.30;1.05;;;13.00;99.90;;;;;;5069769;28;20059;-82
2023/01/06 11:58:27;;;;;;;4.05;0.98;;;13.00;99.90;;;;;;5054771;28;20373;-84
2023/01/06 12:01:03;;;;;;;5.85;0.90;;;13.10;99.90;;;;;;5068033;28;20017;-83
2023/01/06 12:03:43;;;;;;;5.90;1.17;;;13.20;99.90;;;;;;5069958;28;20028;-85
2023/01/06 12:06:12;;;;;;;3.53;1.17;;;13.20;99.90;;;;;;5063351;28;20040;-83
2023/01/06 12:08:48;;;;;;;6.43;1.20;;;13.20;99.90;;;;;;5057882;28;20111;-82
2023/01/06 12:11:41;;;;;;;7.50;1.52;;;13.30;99.90;;;;;;5053686;28;20025;-83
2023/01/06 12:14:32;;;;;;;4.05;1.30;;;13.30;99.90;;;;;;5053907;28;20044;-83
2023/01/06 12:17:13;;;;;;;8.40;2.97;;;13.40;99.90;;;;;;5053347;28;20496;-83
2023/01/06 12:19:48;;;;;;;5.93;1.25;;;13.40;99.90;;;;;;5052883;28;20032;-84
2023/01/06 12:22:26;;;;;;;5.60;1.33;;;13.40;99.90;;;;;;5053158;28;20028;-83
2023/01/06 12:24:55;;;;;;;5.82;1.52;;;13.40;99.90;;;;;;5053467;28;20032;-83
2023/01/06 12:28:03;;;;;;;6.45;1.38;;;13.40;99.90;;;;;;5052495;28;20090;-85
2023/01/06 12:30:46;;;;;;;4.95;1.10;;;13.50;99.90;;;;;;5052254;28;20112;-84
2023/01/06 12:33:32;;;;;;;5.32;0.90;;;13.60;99.90;;;;;;5054221;28;20025;-84
2023/01/06 12:36:03;;;;;;;4.40;1.08;;;13.60;99.90;;;;;;5035633;28;20037;-84
2023/01/06 12:38:52;;;;;;;2.90;0.90;;;13.70;99.90;;;;;;5052302;28;20033;-84
2023/01/06 12:41:40;;;;;;;4.07;0.90;;;13.70;99.90;;;;;;5053393;28;20025;-85
2023/01/06 12:44:27;;;;;;;3.80;1.00;;;13.80;99.90;;;;;;5054604;28;20025;-85
2023/01/06 12:47:33;;;;;;;8.32;1.00;;;13.80;99.90;;;;;;5053339;28;20083;-84
2023/01/06 12:50:38;;;;;;;5.68;1.02;;;13.90;99.90;;;;;;5053946;28;20465;-83
2023/01/06 12:53:11;;;;;;;3.28;0.90;;;13.90;99.90;;;;;;5053318;28;20106;-84
2023/01/06 12:55:51;;;;;;;4.07;0.90;;;14.00;99.90;;;;;;5053715;28;20025;-85
2023/01/06 12:58:38;;;;;;;4.57;1.10;;;14.00;99.90;;;;;;5053299;28;20473;-84
2023/01/06 13:01:06;;;;;;;4.25;0.90;;;14.10;99.90;;;;;;5052839;28;20025;-83
2023/01/06 13:03:41;;;;;;;6.13;1.27;;;14.10;99.90;;;;;;5052162;28;20515;-83
2023/01/06 13:06:18;;;;;;;4.65;0.93;;;14.10;99.90;;;;;;5052387;28;20037;-83
2023/01/06 13:08:55;;;;;;;3.00;0.90;;;14.10;99.90;;;;;;5067913;28;20049;-83
2023/01/06 13:11:45;;;;;;;2.65;0.70;;;14.10;99.90;;;;;;5055745;28;20021;-83
2023/01/06 13:14:27;;;;;;;4.97;1.00;;;14.00;99.90;;;;;;5056088;28;20035;-82